Time;durP1;ratioP1;P1;durP2;ratioP2;P2;SDS_P1;SDS_P2;PMS_P1;PMS_P2;Temp;Humidity;BMP_temperature;BMP_pressure;BME280_temperature;BME280_humidity;BME280_pressure;Samples;Min_cycle;Max_cycle;Signal;HPM_P1;HPM_P2
2022/03/13 00:02:04;;;;;;;55.70;29.57;;;;;;;-3.52;61.90;95868.06;5062970;28;20210;-84
2022/03/13 00:04:30;;;;;;;50.57;30.80;;;;;;;-3.23;62.54;95907.34;5072645;28;20194;-84
2022/03/13 00:06:56;;;;;;;53.03;20.73;;;;;;;-3.37;62.53;95896.31;5054285;28;20655;-84
2022/03/13 00:09:22;;;;;;;55.40;23.80;;;;;;;-3.17;62.98;95904.34;5054373;28;20174;-84
2022/03/13 00:11:53;;;;;;;49.67;20.60;;;;;;;-3.22;62.35;95896.13;5054291;28;20198;-84
2022/03/13 00:14:24;;;;;;;81.07;27.13;;;;;;;-3.45;61.89;95859.00;5071918;28;20601;-83
2022/03/13 00:16:50;;;;;;;97.87;32.93;;;;;;;-3.05;62.39;95915.59;5054364;28;20182;-83
2022/03/13 00:19:18;;;;;;;136.70;46.23;;;;;;;-3.22;62.33;95895.28;5053166;28;20673;-84
2022/03/13 00:21:50;;;;;;;144.43;49.47;;;;;;;-3.16;63.06;95916.28;5070726;28;20182;-84
2022/03/13 00:24:20;;;;;;;154.30;53.37;;;;;;;-3.50;63.71;95871.38;5070618;28;20257;-84
2022/03/13 00:26:47;;;;;;;178.00;62.23;;;;;;;-3.40;63.92;95878.47;5071658;28;20166;-84
2022/03/13 00:29:12;;;;;;;166.73;58.80;;;;;;;-3.40;63.77;95878.47;5071825;28;20171;-84
2022/03/13 00:31:38;;;;;;;153.40;55.80;;;;;;;-3.20;64.03;95909.69;5053880;28;20331;-84
2022/03/13 00:34:05;;;;;;;134.83;50.50;;;;;;;-3.72;63.50;95835.13;5054140;28;20266;-84
2022/03/13 00:36:31;;;;;;;126.50;46.97;;;;;;;-3.70;63.28;95843.53;5072321;28;20178;-84
2022/03/13 00:38:57;;;;;;;118.60;44.83;;;;;;;-3.49;63.23;95878.16;5072210;28;20216;-84
2022/03/13 00:41:22;;;;;;;105.47;38.10;;;;;;;-3.60;62.83;95859.19;5053898;28;20174;-84
2022/03/13 00:43:48;;;;;;;89.60;36.10;;;;;;;-3.34;63.30;95922.66;5071904;28;20208;-84
2022/03/13 00:46:14;;;;;;;73.40;33.33;;;;;;;-3.79;62.93;95839.00;5054005;28;20177;-84
2022/03/13 00:48:41;;;;;;;94.67;34.97;;;;;;;-3.72;63.80;95850.56;5072037;28;20167;-83
2022/03/13 00:51:06;;;;;;;92.00;34.60;;;;;;;-3.52;63.59;95893.78;5072184;28;20171;-84
2022/03/13 00:53:32;;;;;;;90.63;35.97;;;;;;;-3.68;63.83;95859.69;5054149;28;20175;-83
2022/03/13 00:55:58;;;;;;;88.50;33.67;;;;;;;-3.53;63.81;95897.28;5053846;28;20185;-83
2022/03/13 00:58:23;;;;;;;89.80;32.40;;;;;;;-3.48;64.01;95908.13;5071833;28;20190;-84
2022/03/13 01:00:48;;;;;;;80.57;33.07;;;;;;;-3.58;63.82;95881.34;5071855;28;20623;-85
2022/03/13 01:03:30;;;;;;;83.57;31.07;;;;;;;-3.42;64.26;95901.75;5053900;28;20190;-84
2022/03/13 01:05:56;;;;;;;83.93;33.73;;;;;;;-3.42;64.72;95894.03;5053742;28;20170;-84
2022/03/13 01:08:22;;;;;;;97.77;35.23;;;;;;;-3.45;65.07;95894.22;5072399;28;20173;-83
2022/03/13 01:10:49;;;;;;;81.07;33.37;;;;;;;-3.63;64.69;95864.56;5072180;28;20163;-83
2022/03/13 01:13:15;;;;;;;93.27;33.90;;;;;;;-3.85;64.80;95839.38;5071710;28;20163;-83
2022/03/13 01:15:46;;;;;;;101.00;35.13;;;;;;;-3.74;65.06;95854.97;5053984;28;20163;-82
2022/03/13 01:18:12;;;;;;;91.00;36.03;;;;;;;-3.85;64.93;95829.09;5071912;28;20163;-85
2022/03/13 01:20:38;;;;;;;90.83;34.43;;;;;;;-4.04;64.99;95800.34;5071670;28;20673;-84
2022/03/13 01:23:03;;;;;;;94.10;36.40;;;;;;;-3.97;64.71;95811.88;5053649;28;20263;-85
2022/03/13 01:25:29;;;;;;;83.33;35.57;;;;;;;-4.00;65.86;95819.81;5072800;28;20165;-85
2022/03/13 01:27:54;;;;;;;82.47;32.47;;;;;;;-3.73;66.12;95863.50;5057533;28;20182;-84
2022/03/13 01:30:20;;;;;;;80.97;35.50;;;;;;;-3.67;66.55;95858.78;5075328;28;20696;-85
2022/03/13 01:32:52;;;;;;;62.10;29.43;;;;;;;-3.72;65.61;95837.69;5057539;28;20233;-85
2022/03/13 01:35:22;;;;;;;75.10;29.33;;;;;;;-3.92;65.88;95802.97;5075469;28;20219;-84
2022/03/13 01:37:48;;;;;;;79.67;30.13;;;;;;;-3.97;65.54;95770.75;5075522;28;20685;-85
2022/03/13 01:40:23;;;;;;;77.57;31.53;;;;;;;-3.67;65.34;95824.50;5075098;28;20179;-85
2022/03/13 01:42:50;;;;;;;66.70;28.63;;;;;;;-3.62;64.99;95833.56;5074576;28;20600;-85
2022/03/13 01:45:18;;;;;;;67.77;26.90;;;;;;;-3.81;65.21;95810.81;5074504;28;20174;-85
2022/03/13 01:47:44;;;;;;;50.73;20.80;;;;;;;-3.81;64.86;95810.00;5074051;28;20693;-85
2022/03/13 01:50:11;;;;;;;42.83;18.83;;;;;;;-3.71;64.49;95849.59;5074575;28;20253;-85
2022/03/13 01:52:39;;;;;;;41.70;16.60;;;;;;;-3.98;64.10;95820.56;5057138;28;20158;-85
2022/03/13 01:55:05;;;;;;;55.97;24.27;;;;;;;-3.68;65.40;95866.59;5075496;28;20174;-84
2022/03/13 01:57:32;;;;;;;31.77;14.17;;;;;;;-4.10;63.89;95811.88;5075217;28;20209;-85
2022/03/13 01:59:59;;;;;;;33.33;12.90;;;;;;;-3.91;63.69;95842.38;5056801;28;20277;-84
2022/03/13 02:02:29;;;;;;;26.60;12.63;;;;;;;-3.79;63.58;95859.56;5074783;28;20186;-85
2022/03/13 02:04:56;;;;;;;22.13;11.00;;;;;;;-3.85;62.82;95845.34;5057037;28;20170;-84
2022/03/13 02:07:23;;;;;;;22.53;10.50;;;;;;;-3.86;62.84;95854.00;5074710;28;20170;-85
2022/03/13 02:09:49;;;;;;;30.97;11.53;;;;;;;-3.80;63.09;95869.03;5075075;28;20673;-85
2022/03/13 02:12:19;;;;;;;26.30;14.03;;;;;;;-3.83;63.37;95874.38;5056634;28;20162;-85
2022/03/13 02:14:45;;;;;;;37.83;14.47;;;;;;;-4.20;63.93;95819.34;5056677;28;20178;-85
2022/03/13 02:17:11;;;;;;;36.20;14.73;;;;;;;-3.90;64.03;95868.00;5056681;28;20242;-85
2022/03/13 02:19:37;;;;;;;29.50;13.77;;;;;;;-4.28;63.82;95806.16;5056665;28;20265;-84
2022/03/13 02:22:02;;;;;;;32.60;14.13;;;;;;;-3.98;64.42;95872.75;5056482;28;20619;-84
2022/03/13 02:24:28;;;;;;;31.87;13.00;;;;;;;-4.35;64.53;95828.03;5074218;28;20632;-85
2022/03/13 02:27:03;;;;;;;28.67;12.93;;;;;;;-4.04;64.46;95868.03;5055753;28;20596;-83
2022/03/13 02:29:29;;;;;;;20.87;11.33;;;;;;;-4.51;63.93;95803.41;5067517;28;20170;-83
2022/03/13 02:31:57;;;;;;;27.43;12.83;;;;;;;-4.11;65.00;95881.34;5073921;28;20297;-82
2022/03/13 02:34:22;;;;;;;26.53;11.60;;;;;;;-4.14;64.50;95874.66;5074218;28;20248;-82
2022/03/13 02:36:51;;;;;;;27.00;12.70;;;;;;;-4.11;65.25;95886.50;5055999;28;20174;-82
2022/03/13 02:39:17;;;;;;;29.53;12.93;;;;;;;-4.48;64.72;95819.41;5076483;28;20227;-84
2022/03/13 02:41:43;;;;;;;21.97;11.27;;;;;;;-4.12;64.04;95872.00;5058668;28;20174;-83
2022/03/13 02:44:11;;;;;;;29.60;14.07;;;;;;;-4.08;64.09;95868.31;5074436;28;20202;-84
2022/03/13 02:46:48;;;;;;;34.40;14.47;;;;;;;-4.09;64.01;95879.53;5073438;28;20535;-83
2022/03/13 02:49:15;;;;;;;34.77;14.50;;;;;;;-4.23;64.23;95855.50;5073253;28;20169;-83
2022/03/13 02:51:41;;;;;;;33.17;13.67;;;;;;;-4.34;64.63;95834.81;5055436;28;20203;-83
2022/03/13 02:54:08;;;;;;;31.77;13.63;;;;;;;-4.31;64.86;95837.16;5073637;28;20217;-83
2022/03/13 02:56:33;;;;;;;32.07;15.03;;;;;;;-4.20;64.94;95854.50;5073558;28;20170;-83
2022/03/13 02:58:59;;;;;;;31.87;14.40;;;;;;;-4.13;64.49;95871.16;5073773;28;20347;-83
2022/03/13 03:01:24;;;;;;;33.50;15.00;;;;;;;-4.48;64.91;95821.16;5073661;28;20162;-83
2022/03/13 03:03:56;;;;;;;36.43;15.60;;;;;;;-4.30;64.91;95853.41;5055350;28;20210;-84
2022/03/13 03:06:22;;;;;;;37.37;15.77;;;;;;;-4.22;65.30;95871.75;5073397;28;20158;-83
2022/03/13 03:08:47;;;;;;;38.17;14.60;;;;;;;-4.29;65.41;95852.50;5072687;28;20659;-83
2022/03/13 03:11:14;;;;;;;36.50;15.43;;;;;;;-4.28;65.10;95857.56;5072565;28;20178;-83
2022/03/13 03:13:40;;;;;;;37.23;15.20;;;;;;;-4.37;66.00;95850.41;5054617;28;20609;-84
2022/03/13 03:16:05;;;;;;;39.30;16.50;;;;;;;-4.64;65.80;95799.00;5072486;28;20227;-83
2022/03/13 03:18:31;;;;;;;36.17;15.40;;;;;;;-4.38;65.53;95841.06;5055054;28;20264;-83
2022/03/13 03:20:56;;;;;;;34.83;15.17;;;;;;;-4.53;66.20;95824.03;5072773;28;20285;-82
2022/03/13 03:23:22;;;;;;;38.63;16.07;;;;;;;-4.32;66.65;95858.66;5072847;28;20215;-83
2022/03/13 03:25:47;;;;;;;39.00;15.33;;;;;;;-4.45;66.18;95838.97;5072852;28;20171;-83
2022/03/13 03:28:17;;;;;;;42.73;15.87;;;;;;;-4.29;66.83;95865.34;5055021;28;20167;-83
2022/03/13 03:30:42;;;;;;;43.17;17.63;;;;;;;-4.57;66.46;95818.25;5073093;28;20608;-83
2022/03/13 03:33:08;;;;;;;35.03;14.93;;;;;;;-4.36;66.85;95853.81;5072668;28;20221;-83
2022/03/13 03:35:34;;;;;;;43.03;16.90;;;;;;;-4.32;66.93;95853.50;5072707;28;20159;-82
2022/03/13 03:38:00;;;;;;;34.20;15.77;;;;;;;-4.41;66.71;95837.88;5072715;28;20186;-83
2022/03/13 03:40:28;;;;;;;40.07;18.37;;;;;;;-4.26;66.42;95854.88;5072630;28;20292;-83
2022/03/13 03:43:04;;;;;;;40.10;18.63;;;;;;;-4.41;66.95;95830.97;5072532;28;20221;-83
2022/03/13 03:45:31;;;;;;;39.67;19.17;;;;;;;-4.33;66.81;95849.31;5072497;28;20211;-83
2022/03/13 03:47:57;;;;;;;35.70;15.37;;;;;;;-4.34;66.47;95837.38;5072117;28;20169;-83
2022/03/13 03:50:23;;;;;;;36.53;17.57;;;;;;;-4.69;65.88;95780.50;5072894;28;20163;-83
2022/03/13 03:52:50;;;;;;;50.83;21.10;;;;;;;-4.24;66.38;95859.00;5071469;28;20179;-83
2022/03/13 03:55:16;;;;;;;46.23;20.37;;;;;;;-4.27;65.50;95840.38;5071719;28;20655;-82
2022/03/13 03:57:42;;;;;;;53.37;20.13;;;;;;;-4.28;65.50;95820.75;5071639;28;20175;-82
2022/03/13 04:00:08;;;;;;;32.60;15.03;;;;;;;-4.13;65.73;95854.94;5071670;28;20659;-82
2022/03/13 04:02:34;;;;;;;33.50;13.87;;;;;;;-4.15;64.85;95857.59;5071970;28;20717;-83
2022/03/13 04:05:01;;;;;;;21.03;10.17;;;;;;;-4.53;65.07;95800.91;5054170;28;20166;-83
2022/03/13 04:07:27;;;;;;;16.57;8.17;;;;;;;-4.40;65.03;95830.03;5072184;28;21057;-83
2022/03/13 04:09:53;;;;;;;15.40;8.43;;;;;;;-4.49;65.01;95807.50;5072453;28;21060;-83
2022/03/13 04:12:18;;;;;;;16.33;8.17;;;;;;;-4.45;64.32;95798.69;5072224;28;20154;-83
2022/03/13 04:14:44;;;;;;;16.77;7.50;;;;;;;-4.13;64.00;95849.78;5054116;28;20186;-83
2022/03/13 04:17:10;;;;;;;14.93;7.20;;;;;;;-4.37;63.59;95805.91;5072141;28;20174;-83
2022/03/13 04:19:35;;;;;;;13.97;7.17;;;;;;;-4.12;63.80;95844.56;5054087;28;20182;-82
2022/03/13 04:22:02;;;;;;;17.53;7.37;;;;;;;-4.22;63.50;95826.31;5072261;28;20162;-82
2022/03/13 04:24:30;;;;;;;18.47;8.77;;;;;;;-4.48;64.02;95777.50;5072162;28;20166;-82
2022/03/13 04:26:56;;;;;;;22.50;9.13;;;;;;;-4.18;63.14;95822.66;5072401;28;20162;-83
2022/03/13 04:29:23;;;;;;;19.00;8.63;;;;;;;-4.27;62.96;95812.94;5072033;28;20167;-83
2022/03/13 04:31:50;;;;;;;15.53;8.13;;;;;;;-4.14;63.47;95832.72;5053793;28;20312;-83
2022/03/13 04:34:16;;;;;;;21.17;9.40;;;;;;;-4.21;64.15;95809.16;5072200;28;20530;-83
2022/03/13 04:36:42;;;;;;;14.97;8.83;;;;;;;-4.04;63.76;95833.78;5071385;28;20568;-83
2022/03/13 04:39:08;;;;;;;25.47;11.43;;;;;;;-4.45;63.48;95765.28;5071181;28;20178;-83
2022/03/13 04:41:34;;;;;;;69.63;28.57;;;;;;;-3.94;65.00;95835.66;5071292;28;20178;-83
2022/03/13 04:44:00;;;;;;;34.27;14.00;;;;;;;-3.89;63.53;95838.75;5071496;28;20692;-83
2022/03/13 04:46:26;;;;;;;17.40;8.67;;;;;;;-4.08;63.07;95810.03;5053483;28;20318;-84
2022/03/13 04:48:53;;;;;;;14.87;8.13;;;;;;;-3.87;63.41;95841.22;5070051;28;20257;-84
2022/03/13 04:51:19;;;;;;;17.47;7.30;;;;;;;-3.92;62.78;95831.25;5070338;28;20186;-83
2022/03/13 04:53:45;;;;;;;16.30;7.27;;;;;;;-3.79;62.92;95839.00;5069681;28;20174;-84
2022/03/13 04:56:11;;;;;;;26.83;13.50;;;;;;;-3.74;63.29;95836.97;5070248;28;20235;-84
2022/03/13 04:58:37;;;;;;;13.37;8.10;;;;;;;-3.95;63.03;95800.59;5071007;28;20245;-84
2022/03/13 05:01:02;;;;;;;17.70;8.67;;;;;;;-3.84;63.06;95815.31;5075083;28;20178;-83
2022/03/13 05:03:28;;;;;;;15.50;8.40;;;;;;;-3.96;63.48;95801.50;5075684;28;20626;-84
2022/03/13 05:05:54;;;;;;;17.37;7.30;;;;;;;-3.86;63.04;95814.59;5075671;28;20177;-84
2022/03/13 05:08:19;;;;;;;15.77;9.10;;;;;;;-3.98;62.62;95779.41;5075546;28;21051;-84
2022/03/13 05:10:47;;;;;;;18.40;7.70;;;;;;;-3.83;61.40;95797.22;5057628;28;20182;-84
2022/03/13 05:13:14;;;;;;;16.57;7.40;;;;;;;-3.54;61.52;95844.19;5057500;28;20253;-84
2022/03/13 05:15:42;;;;;;;18.47;7.47;;;;;;;-3.96;61.50;95782.69;5074554;28;20182;-84
2022/03/13 05:18:07;;;;;;;15.07;6.70;;;;;;;-3.77;62.44;95815.75;5056766;28;20182;-84
2022/03/13 05:20:34;;;;;;;15.07;7.67;;;;;;;-3.42;62.33;95856.25;5074629;28;20178;-84
2022/03/13 05:23:01;;;;;;;14.90;7.27;;;;;;;-3.57;61.49;95831.53;5074393;28;20202;-84
2022/03/13 05:25:30;;;;;;;17.10;7.93;;;;;;;-3.80;61.06;95807.31;5056765;28;20174;-83
2022/03/13 05:27:56;;;;;;;17.73;8.07;;;;;;;-3.45;61.98;95853.88;5056711;28;20944;-83
2022/03/13 05:30:21;;;;;;;15.60;7.90;;;;;;;-3.53;61.83;95840.69;5075254;28;20220;-83
2022/03/13 05:32:48;;;;;;;19.30;9.27;;;;;;;-3.37;61.75;95866.22;5075023;28;20683;-83
2022/03/13 05:35:14;;;;;;;23.60;9.60;;;;;;;-3.33;61.85;95864.28;5057149;28;20232;-83
2022/03/13 05:37:40;;;;;;;24.43;10.87;;;;;;;-3.24;62.72;95855.94;5075116;28;20178;-83
2022/03/13 05:40:06;;;;;;;29.23;12.57;;;;;;;-3.25;63.05;95839.69;5075052;28;20595;-83
2022/03/13 05:42:32;;;;;;;25.30;11.27;;;;;;;-3.25;62.56;95813.94;5074829;28;20727;-83
2022/03/13 05:44:57;;;;;;;26.30;12.60;;;;;;;-2.91;62.08;95869.13;5056979;28;20198;-84
2022/03/13 05:47:23;;;;;;;26.33;12.27;;;;;;;-2.73;61.99;95861.91;5074812;28;20253;-83
2022/03/13 05:49:49;;;;;;;39.23;18.57;;;;;;;-2.54;62.08;95866.63;5075017;28;20166;-83
2022/03/13 05:52:15;;;;;;;35.07;16.50;;;;;;;-2.38;61.59;95867.19;5074423;28;20332;-83
2022/03/13 05:54:42;;;;;;;45.47;21.23;;;;;;;-2.29;59.71;95851.09;5056308;28;20598;-83
2022/03/13 05:57:10;;;;;;;37.67;17.90;;;;;;;-2.20;59.43;95834.97;5074220;28;20178;-83
2022/03/13 05:59:38;;;;;;;39.17;17.40;;;;;;;-1.95;57.67;95852.91;5074099;28;20182;-83
2022/03/13 06:02:05;;;;;;;49.30;22.23;;;;;;;-1.96;56.62;95838.38;5074662;28;20179;-83
2022/03/13 06:04:32;;;;;;;44.07;22.53;;;;;;;-1.62;57.09;95866.88;5074723;28;20165;-83
2022/03/13 06:06:59;;;;;;;48.53;21.27;;;;;;;-1.46;57.07;95872.56;5074837;28;20593;-83
2022/03/13 06:09:25;;;;;;;51.13;20.60;;;;;;;-1.32;56.76;95874.16;5075091;28;20154;-83
2022/03/13 06:11:50;;;;;;;32.20;15.87;;;;;;;-1.08;55.81;95880.06;5074280;28;20169;-83
2022/03/13 06:14:18;;;;;;;34.87;15.23;;;;;;;-1.19;55.87;95824.03;5074560;28;20311;-83
2022/03/13 06:16:44;;;;;;;28.17;12.47;;;;;;;-0.63;54.57;95882.72;5074382;28;20151;-83
2022/03/13 06:19:10;;;;;;;27.37;12.40;;;;;;;-0.59;54.21;95874.59;5074407;28;20174;-83
2022/03/13 06:21:39;;;;;;;21.27;10.57;;;;;;;-0.53;53.42;95853.47;5074608;28;20171;-83
2022/03/13 06:24:04;;;;;;;21.67;11.33;;;;;;;0.18;52.03;95840.94;5056212;28;20561;-83
2022/03/13 06:26:30;;;;;;;20.83;10.80;;;;;;;1.82;48.95;95882.47;5074218;28;20173;-83
2022/03/13 06:28:55;;;;;;;21.03;9.90;;;;;;;3.37;45.23;95883.34;5074135;28;20235;-83
2022/03/13 06:31:20;;;;;;;21.57;10.97;;;;;;;4.86;41.05;95892.53;5073766;28;20185;-83
2022/03/13 06:33:46;;;;;;;21.53;11.63;;;;;;;5.96;36.83;95827.47;5074200;28;20612;-84
2022/03/13 06:36:12;;;;;;;25.80;12.30;;;;;;;7.64;35.43;95876.63;5074127;28;20151;-84
2022/03/13 06:38:38;;;;;;;24.60;11.73;;;;;;;9.41;32.52;95892.44;5073963;28;20930;-84
2022/03/13 06:41:03;;;;;;;23.60;12.23;;;;;;;10.93;29.50;95886.56;5073692;28;20208;-84
2022/03/13 06:43:29;;;;;;;21.40;10.47;;;;;;;12.09;27.41;95883.47;5055146;28;20195;-81
2022/03/13 06:45:56;;;;;;;24.00;13.33;;;;;;;13.25;26.32;95881.63;5073171;28;20235;-82
2022/03/13 06:48:21;;;;;;;28.23;15.03;;;;;;;14.15;25.38;95862.44;5073313;28;20173;-82
2022/03/13 06:50:48;;;;;;;30.40;14.93;;;;;;;15.31;23.89;95877.19;5054915;28;20182;-82
2022/03/13 06:53:14;;;;;;;71.30;35.77;;;;;;;15.61;23.02;95826.19;5052627;28;20235;-83
2022/03/13 06:55:40;;;;;;;28.85;16.85;;;;;;;17.15;21.06;95865.72;5073375;28;20263;-84
2022/03/13 06:58:06;;;;;;;34.95;16.65;;;;;;;17.61;20.73;95857.84;5073648;28;20178;-83
2022/03/13 07:00:32;;;;;;;29.00;15.68;;;;;;;17.84;19.58;95834.94;5073876;28;20151;-83
2022/03/13 07:02:58;;;;;;;25.90;17.20;;;;;;;17.90;19.67;95850.03;5073913;28;20226;-83
2022/03/13 07:05:24;;;;;;;34.45;20.05;;;;;;;17.35;20.54;95853.75;5055753;28;20174;-84
2022/03/13 07:07:52;;;;;;;34.05;18.27;;;;;;;16.75;21.05;95852.97;5074141;28;20166;-83
2022/03/13 07:10:19;;;;;;;29.23;18.67;;;;;;;16.11;21.30;95832.22;5055908;28;20178;-83
2022/03/13 07:12:44;;;;;;;38.40;23.75;;;;;;;15.14;21.74;95824.88;5073678;28;20560;-83
2022/03/13 07:15:13;;;;;;;45.47;25.03;;;;;;;14.31;23.13;95790.47;5073657;28;20638;-83
2022/03/13 07:17:41;;;;;;;47.00;25.00;;;;;;;14.27;23.77;95829.00;5073802;28;20563;-83
2022/03/13 07:20:07;;;;;;;33.47;19.43;;;;;;;14.24;22.90;95842.66;5056031;28;20227;-83
2022/03/13 07:22:33;;;;;;;37.67;21.80;;;;;;;13.50;23.38;95833.22;5072387;28;20198;-83
2022/03/13 07:24:58;;;;;;;38.80;20.60;;;;;;;12.97;24.80;95799.84;5073542;28;20541;-83
2022/03/13 07:27:24;;;;;;;45.60;23.53;;;;;;;12.50;24.63;95798.94;5073626;28;20162;-83
2022/03/13 07:29:51;;;;;;;42.97;23.67;;;;;;;12.37;24.89;95841.94;5074514;28;20639;-82
2022/03/13 07:32:16;;;;;;;38.90;20.37;;;;;;;12.04;25.58;95822.50;5077672;28;20242;-82
2022/03/13 07:34:42;;;;;;;27.07;16.23;;;;;;;12.07;25.75;95854.63;5058377;28;20224;-82
2022/03/13 07:37:10;;;;;;;27.77;14.97;;;;;;;11.75;26.71;95835.97;5072612;28;20257;-83
2022/03/13 07:39:36;;;;;;;26.70;13.33;;;;;;;11.42;26.19;95817.22;5071726;28;20175;-83
2022/03/13 07:42:03;;;;;;;29.67;16.03;;;;;;;11.41;27.09;95828.81;5054340;28;20205;-82
2022/03/13 07:44:29;;;;;;;24.50;13.50;;;;;;;11.24;27.37;95833.53;5072822;28;20682;-82
2022/03/13 07:46:54;;;;;;;22.53;12.90;;;;;;;10.96;27.55;95825.59;5072628;28;20186;-82
2022/03/13 07:49:20;;;;;;;24.90;13.97;;;;;;;10.86;27.80;95848.78;5054805;28;20201;-82
2022/03/13 07:51:49;;;;;;;26.43;12.83;;;;;;;10.15;28.18;95839.88;5072709;28;20159;-82
2022/03/13 07:54:20;;;;;;;21.17;13.17;;;;;;;9.94;28.26;95845.06;5072961;28;20177;-82
2022/03/13 07:56:46;;;;;;;22.43;11.73;;;;;;;9.51;28.92;95834.38;5073126;28;20231;-83
2022/03/13 07:59:11;;;;;;;22.97;13.67;;;;;;;9.35;29.60;95826.63;5072814;28;20162;-83
2022/03/13 08:01:37;;;;;;;25.07;13.33;;;;;;;9.27;29.66;95832.75;5071912;28;20174;-83
2022/03/13 08:04:05;;;;;;;21.60;12.07;;;;;;;9.09;29.95;95842.78;5053034;28;20304;-83
2022/03/13 08:06:34;;;;;;;23.83;12.17;;;;;;;8.64;30.09;95835.75;5071744;28;20181;-82
2022/03/13 08:09:00;;;;;;;25.23;12.97;;;;;;;8.61;30.40;95833.47;5053440;28;20182;-82
2022/03/13 08:11:26;;;;;;;26.87;12.70;;;;;;;8.62;30.89;95795.72;5072454;28;20607;-81
2022/03/13 08:13:52;;;;;;;24.47;11.83;;;;;;;8.98;30.62;95824.84;5071085;28;20178;-81
2022/03/13 08:16:18;;;;;;;21.47;12.30;;;;;;;8.81;30.11;95815.44;5071468;28;20182;-83
2022/03/13 08:18:44;;;;;;;28.00;13.27;;;;;;;8.75;31.10;95774.94;5071216;28;20162;-83
2022/03/13 08:21:09;;;;;;;26.20;13.07;;;;;;;8.59;29.62;95757.53;5054145;28;20197;-83
2022/03/13 08:23:35;;;;;;;25.67;12.60;;;;;;;8.03;30.54;95756.09;5055155;28;20709;-85
2022/03/13 08:26:00;;;;;;;25.37;14.27;;;;;;;7.77;31.66;95759.00;5072062;28;20213;-88
2022/03/13 08:28:26;;;;;;;26.23;13.70;;;;;;;7.65;32.00;95793.59;5054064;28;20182;-87
2022/03/13 08:30:51;;;;;;;32.20;13.43;;;;;;;7.28;32.45;95755.72;5053146;28;20174;-86
2022/03/13 08:33:17;;;;;;;23.10;13.17;;;;;;;7.38;32.98;95748.50;5053385;28;20210;-87
2022/03/13 08:35:43;;;;;;;25.80;13.80;;;;;;;7.89;32.91;95752.38;5070740;28;20562;-87
2022/03/13 08:38:08;;;;;;;27.90;14.97;;;;;;;8.45;32.23;95789.78;5072763;28;20174;-91
2022/03/13 08:40:34;;;;;;;29.40;14.50;;;;;;;8.30;31.00;95712.81;5053506;28;20270;-87
2022/03/13 08:42:59;;;;;;;24.13;13.40;;;;;;;9.08;29.26;95810.44;5072055;28;20722;-90
2022/03/13 08:45:25;;;;;;;27.00;14.17;;;;;;;8.89;30.13;95768.94;5054339;28;20327;-90
2022/03/13 08:47:50;;;;;;;26.50;12.47;;;;;;;9.06;29.97;95791.44;5053512;28;20173;-89
2022/03/13 08:50:16;;;;;;;26.63;13.50;;;;;;;8.73;31.29;95726.25;5053323;28;20792;-90
2022/03/13 08:52:43;;;;;;;28.27;12.33;;;;;;;8.55;30.13;95700.34;5070363;28;20197;-91
2022/03/13 08:55:13;;;;;;;25.63;13.07;;;;;;;8.92;30.24;95781.69;5052894;28;20183;-88
2022/03/13 08:57:41;;;;;;;23.00;12.30;;;;;;;8.53;29.91;95758.25;5053234;28;20186;-88
2022/03/13 09:00:10;;;;;;;28.57;13.87;;;;;;;7.89;30.21;95748.94;5051251;28;20573;-87
2022/03/13 09:02:36;;;;;;;29.63;12.40;;;;;;;7.69;30.40;95766.09;5051267;28;20301;-87
2022/03/13 09:05:04;;;;;;;20.63;11.70;;;;;;;6.80;31.45;95683.38;5052703;28;20654;-86
2022/03/13 09:07:29;;;;;;;22.27;12.50;;;;;;;7.19;32.24;95791.59;5052293;28;20179;-86
2022/03/13 09:09:55;;;;;;;23.53;11.97;;;;;;;6.46;32.76;95643.56;5052849;28;20186;-89
2022/03/13 09:12:20;;;;;;;32.93;13.90;;;;;;;6.71;32.32;95677.34;5052948;28;20262;-88
2022/03/13 09:14:46;;;;;;;22.73;12.97;;;;;;;7.23;32.78;95767.69;5071340;28;20706;-85
2022/03/13 09:17:12;;;;;;;23.53;11.87;;;;;;;6.59;31.88;95636.81;5070365;28;20231;-85
2022/03/13 09:19:38;;;;;;;25.33;12.27;;;;;;;7.38;31.74;95764.22;5053959;28;20178;-87
2022/03/13 09:22:04;;;;;;;22.83;12.57;;;;;;;7.44;32.36;95770.56;5069340;28;20189;-87
2022/03/13 09:24:30;;;;;;;23.97;13.63;;;;;;;7.30;32.57;95777.34;5053242;28;20702;-88
2022/03/13 09:26:55;;;;;;;28.27;12.90;;;;;;;6.96;33.96;95727.84;5053064;28;20173;-85
2022/03/13 09:29:21;;;;;;;24.57;12.80;;;;;;;6.61;34.22;95661.00;5071099;28;20179;-90
2022/03/13 09:31:47;;;;;;;29.13;12.73;;;;;;;7.34;33.91;95752.47;5052160;28;20733;-83
2022/03/13 09:34:12;;;;;;;22.77;11.57;;;;;;;6.69;31.96;95645.31;5071332;28;20175;-89
2022/03/13 09:36:39;;;;;;;24.17;12.60;;;;;;;6.83;32.91;95667.38;5054269;28;20178;-87
2022/03/13 09:39:07;;;;;;;25.70;12.27;;;;;;;7.29;32.78;95723.31;5054426;28;20201;-88
2022/03/13 09:41:38;;;;;;;21.90;12.17;;;;;;;7.77;33.97;95758.19;5071569;28;20175;-89
2022/03/13 09:44:06;;;;;;;24.13;13.37;;;;;;;7.76;32.89;95725.09;5053643;28;20234;-90
2022/03/13 09:46:31;;;;;;;26.17;12.23;;;;;;;7.68;32.78;95717.28;5072680;28;20186;-90
2022/03/13 09:48:58;;;;;;;20.27;10.40;;;;;;;7.85;32.31;95740.63;5056887;28;20174;-89
2022/03/13 09:51:23;;;;;;;22.20;11.50;;;;;;;6.82;32.00;95598.50;5074973;28;20174;-90
2022/03/13 09:53:49;;;;;;;21.23;10.60;;;;;;;7.11;31.43;95699.16;5057792;28;20661;-86
2022/03/13 09:56:15;;;;;;;22.50;10.50;;;;;;;6.78;33.96;95741.13;5053221;28;20179;-87
2022/03/13 09:58:42;;;;;;;27.50;11.47;;;;;;;6.37;34.38;95745.53;5052832;28;20174;-86
2022/03/13 10:01:08;;;;;;;23.37;10.60;;;;;;;6.15;33.81;95734.88;5052942;28;20175;-86
2022/03/13 10:03:33;;;;;;;18.93;10.33;;;;;;;5.75;34.37;95685.97;5053552;28;20194;-86
2022/03/13 10:05:59;;;;;;;19.10;11.23;;;;;;;5.57;34.64;95663.41;5053133;28;20642;-86
2022/03/13 10:08:31;;;;;;;20.37;11.17;;;;;;;5.95;35.17;95731.78;5053467;28;20236;-86
2022/03/13 10:10:58;;;;;;;23.73;11.10;;;;;;;5.53;34.79;95684.78;5071429;28;20212;-86
2022/03/13 10:13:41;;;;;;;21.90;11.43;;;;;;;6.05;35.40;95720.16;5070990;28;20618;-86
2022/03/13 10:16:14;;;;;;;19.43;10.27;;;;;;;6.23;34.65;95709.56;5052801;28;20181;-86
2022/03/13 10:18:39;;;;;;;24.97;11.10;;;;;;;6.17;34.59;95678.03;5070934;28;20182;-86
2022/03/13 10:21:12;;;;;;;24.63;11.30;;;;;;;6.63;35.61;95697.47;5070894;28;20193;-86
2022/03/13 10:23:37;;;;;;;21.77;10.57;;;;;;;6.91;33.10;95701.34;5070921;28;20205;-86
2022/03/13 10:26:05;;;;;;;18.97;9.37;;;;;;;7.08;33.13;95710.81;5070747;28;20177;-86
2022/03/13 10:28:37;;;;;;;18.07;8.37;;;;;;;7.06;32.30;95670.88;5052761;28;20190;-85
2022/03/13 10:31:03;;;;;;;18.13;9.90;;;;;;;7.15;33.60;95726.66;5055506;28;20189;-86
2022/03/13 10:33:43;;;;;;;26.50;12.13;;;;;;;7.04;34.15;95719.97;5070924;28;20218;-86
2022/03/13 10:36:21;;;;;;;17.77;8.00;;;;;;;7.20;33.92;95719.09;5052566;28;20643;-86
2022/03/13 10:38:49;;;;;;;16.77;7.97;;;;;;;7.41;32.65;95718.53;5052033;28;20562;-86
2022/03/13 10:41:15;;;;;;;12.33;5.97;;;;;;;7.38;31.55;95690.06;5070094;28;20170;-86
2022/03/13 10:43:40;;;;;;;12.17;6.33;;;;;;;7.65;32.09;95709.75;5053344;28;20194;-86
2022/03/13 10:46:06;;;;;;;13.37;6.70;;;;;;;7.56;31.19;95682.78;5070900;28;20613;-86
2022/03/13 10:48:37;;;;;;;12.60;7.17;;;;;;;7.67;30.97;95674.53;5051376;28;20182;-86
2022/03/13 10:51:04;;;;;;;16.10;8.57;;;;;;;7.82;29.21;95698.19;5052534;28;20273;-86
2022/03/13 10:53:31;;;;;;;19.20;9.20;;;;;;;7.28;30.58;95676.34;5070609;28;20174;-86
2022/03/13 10:56:08;;;;;;;18.97;8.53;;;;;;;7.33;31.19;95695.00;5050539;28;20278;-86
2022/03/13 10:58:38;;;;;;;16.87;6.10;;;;;;;7.07;30.11;95642.91;5051426;28;20182;-86
2022/03/13 11:01:13;;;;;;;27.27;8.93;;;;;;;7.24;27.70;95664.59;5051607;28;20594;-86
2022/03/13 11:04:02;;;;;;;15.27;6.90;;;;;;;7.53;27.85;95704.06;5063078;28;20202;-86
2022/03/13 11:06:28;;;;;;;13.77;6.93;;;;;;;7.39;28.90;95670.75;5061540;28;20193;-87
2022/03/13 11:08:55;;;;;;;27.00;7.93;;;;;;;6.98;27.91;95629.03;5049195;28;20186;-86
2022/03/13 11:11:27;;;;;;;8.83;5.17;;;;;;;7.40;27.95;95688.09;5049198;28;20218;-87
2022/03/13 11:13:59;;;;;;;16.93;7.10;;;;;;;7.22;28.10;95664.75;5071189;28;20170;-89
2022/03/13 11:16:27;;;;;;;23.73;9.13;;;;;;;7.33;28.89;95684.53;5071113;28;20182;-89
2022/03/13 11:19:01;;;;;;;29.43;9.93;;;;;;;7.03;29.71;95650.28;5053583;28;20182;-90
2022/03/13 11:21:27;;;;;;;21.13;7.97;;;;;;;7.25;29.59;95685.38;5054741;28;20216;-89